No particular awareness of the weather is required.    There are no Weather-warnings


Meteo18 Weather Cam more information Meteo18 Weather Cam


Thunder radar more information blitzortung!


Rain radar more information rain snow radar


Visit our other weather sites:

Template documentation
and downloads

And another site



Weather Underground History page Text

Daily Summary for March 1, 2018 Units:  Both    English   Metric
« Previous Day
Next Day »
Daily Weekly Monthly Yearly Custom
  High: Low: Average:
Temperature: TemperatureC °F /  -17.8 °C -2.3 °F /  -19.1 °C 3.4 °F /  -15.9 °C
Dew Point: DewpointC °F /  -17.8 °C -3.4 °F /  -19.7 °C 1.2 °F /  -17.1 °C
Humidity: Humidity % 69 % 86 %
Wind Speed: WindSpeedKMH mph /  0 km/h - 4.9 mph /  7.9 km/h
Wind Gust: WindSpeedGustKMH mph /  0 km/h - -
Wind:- - ENE
Pressure: PressurehPa in /  0 hPa 986.3 in /  33396.1 hPa -
Precipitation: 2.3 in /  58.42 mm    
Historical Graphs
 
 
Tabular Data for March 1, 2018
Time Temperature Dew Point Pressure Wind Wind Speed Wind Gust Humidity Rainfall Rate (Hourly)
TemperatureC °F /  -17.8 °C DewpointC °F /  -17.8 °C PressurehPa in /  0 hPa Calm     Humidity % HourlyPrecipMM in /  0 mm
00:02 -2.3 °F /  -19.1 °C -3.4 °F /  -19.7 °C 997.9 in /  33788.9 hPa NNE 7.9 mph /  12.7 km/h 12.9 mph /  20.8 km/h 92 % 0.0 in /  0 mm
00:08 -2.3 °F /  -19.1 °C -3.3 °F /  -19.6 °C 997.9 in /  33788.9 hPa NE 7.9 mph /  12.7 km/h 12.9 mph /  20.8 km/h 93 % 0.0 in /  0 mm
00:14 -2.3 °F /  -19.1 °C -3.3 °F /  -19.6 °C 997.9 in /  33788.9 hPa NE 6.4 mph /  10.3 km/h 14.5 mph /  23.3 km/h 93 % 0.0 in /  0 mm
00:20 -2.2 °F /  -19 °C -3.2 °F /  -19.6 °C 997.9 in /  33788.9 hPa NNE 11.1 mph /  17.9 km/h 16.1 mph /  25.9 km/h 93 % 0.0 in /  0 mm
00:26 -2.2 °F /  -19 °C -3.2 °F /  -19.6 °C 997.9 in /  33788.9 hPa NE 3.2 mph /  5.1 km/h 11.3 mph /  18.2 km/h 93 % 0.0 in /  0 mm
00:32 -2.2 °F /  -19 °C -3.2 °F /  -19.6 °C 997.9 in /  33788.9 hPa East 7.9 mph /  12.7 km/h 12.9 mph /  20.8 km/h 93 % 0.0 in /  0 mm
00:38 -2.2 °F /  -19 °C -3.2 °F /  -19.6 °C 997.9 in /  33788.9 hPa NE 11.1 mph /  17.9 km/h 12.9 mph /  20.8 km/h 93 % 0.0 in /  0 mm
00:44 -2.1 °F /  -18.9 °C -2.9 °F /  -19.4 °C 997.5 in /  33775.4 hPa NE 7.9 mph /  12.7 km/h 12.9 mph /  20.8 km/h 94 % 0.0 in /  0 mm
00:50 -2.1 °F /  -18.9 °C -2.9 °F /  -19.4 °C 997.5 in /  33775.4 hPa NNE 9.7 mph /  15.6 km/h 16.1 mph /  25.9 km/h 94 % 0.0 in /  0 mm
00:57 -2.1 °F /  -18.9 °C -2.9 °F /  -19.4 °C 997.5 in /  33775.4 hPa ENE 6.4 mph /  10.3 km/h 12.9 mph /  20.8 km/h 94 % 0.0 in /  0 mm
01:03 -2.1 °F /  -18.9 °C -2.9 °F /  -19.4 °C 997.5 in /  33775.4 hPa ENE 9.7 mph /  15.6 km/h 11.3 mph /  18.2 km/h 94 % 0.0 in /  0 mm
01:09 -1.9 °F /  -18.8 °C -2.7 °F /  -19.3 °C 997.5 in /  33775.4 hPa NE 7.9 mph /  12.7 km/h 12.9 mph /  20.8 km/h 94 % 0.0 in /  0 mm
01:15 -1.9 °F /  -18.8 °C -2.7 °F /  -19.3 °C 997.5 in /  33775.4 hPa NE 11.1 mph /  17.9 km/h 16.1 mph /  25.9 km/h 94 % 0.0 in /  0 mm
01:21 -1.8 °F /  -18.8 °C -2.6 °F /  -19.2 °C 997.5 in /  33775.4 hPa NE 6.4 mph /  10.3 km/h 12.9 mph /  20.8 km/h 94 % 0.0 in /  0 mm
01:27 -1.8 °F /  -18.8 °C -2.6 °F /  -19.2 °C 997.5 in /  33775.4 hPa NE 14.3 mph /  23 km/h 14.5 mph /  23.3 km/h 94 % 0.0 in /  0 mm
01:33 -1.7 °F /  -18.7 °C -2.5 °F /  -19.2 °C 997.5 in /  33775.4 hPa NNE 9.7 mph /  15.6 km/h 16.1 mph /  25.9 km/h 94 % 0.0 in /  0 mm
01:39 -1.7 °F /  -18.7 °C -2.5 °F /  -19.2 °C 997.5 in /  33775.4 hPa NE 9.7 mph /  15.6 km/h 14.5 mph /  23.3 km/h 94 % 0.0 in /  0 mm
01:45 -1.8 °F /  -18.8 °C -2.8 °F /  -19.3 °C 997.5 in /  33775.4 hPa NNE 9.7 mph /  15.6 km/h 14.5 mph /  23.3 km/h 93 % 0.0 in /  0 mm
01:51 -1.8 °F /  -18.8 °C -2.6 °F /  -19.2 °C 997.5 in /  33775.4 hPa NNE 11.1 mph /  17.9 km/h 16.1 mph /  25.9 km/h 94 % 0.0 in /  0 mm
01:57 -1.8 °F /  -18.8 °C -2.6 °F /  -19.2 °C 997.5 in /  33775.4 hPa NE 6.4 mph /  10.3 km/h 11.3 mph /  18.2 km/h 94 % 0.0 in /  0 mm
02:03 -1.8 °F /  -18.8 °C -2.6 °F /  -19.2 °C 997.2 in /  33765.2 hPa ENE 9.7 mph /  15.6 km/h 11.3 mph /  18.2 km/h 94 % 0.0 in /  0 mm
02:09 -1.8 °F /  -18.8 °C -2.6 °F /  -19.2 °C 997.5 in /  33775.4 hPa NNE 6.4 mph /  10.3 km/h 9.7 mph /  15.6 km/h 94 % 0.0 in /  0 mm
02:15 -1.9 °F /  -18.8 °C -2.7 °F /  -19.3 °C 997.2 in /  33765.2 hPa NE 7.9 mph /  12.7 km/h 12.9 mph /  20.8 km/h 94 % 0.0 in /  0 mm
02:21 -1.9 °F /  -18.8 °C -2.7 °F /  -19.3 °C 997.2 in /  33765.2 hPa ENE 6.4 mph /  10.3 km/h 11.3 mph /  18.2 km/h 94 % 0.0 in /  0 mm
02:27 -1.9 °F /  -18.8 °C -2.7 °F /  -19.3 °C 997.2 in /  33765.2 hPa NNE 7.9 mph /  12.7 km/h 12.9 mph /  20.8 km/h 94 % 0.0 in /  0 mm
02:33 -1.9 °F /  -18.8 °C -2.6 °F /  -19.2 °C 996.8 in /  33751.6 hPa NNE 6.4 mph /  10.3 km/h 9.7 mph /  15.6 km/h 95 % 0.0 in /  0 mm
02:39 -1.8 °F /  -18.8 °C -2.5 °F /  -19.2 °C 996.8 in /  33751.6 hPa ENE 6.4 mph /  10.3 km/h 11.3 mph /  18.2 km/h 95 % 0.0 in /  0 mm
02:45 -1.8 °F /  -18.8 °C -2.5 °F /  -19.2 °C 996.8 in /  33751.6 hPa NNE 7.9 mph /  12.7 km/h 11.3 mph /  18.2 km/h 95 % 0.0 in /  0 mm
02:51 -1.8 °F /  -18.8 °C -2.5 °F /  -19.2 °C 996.8 in /  33751.6 hPa NE 3.2 mph /  5.1 km/h 9.7 mph /  15.6 km/h 95 % 0.0 in /  0 mm
02:57 -1.9 °F /  -18.8 °C -2.6 °F /  -19.2 °C 996.5 in /  33741.5 hPa ENE 6.4 mph /  10.3 km/h 9.7 mph /  15.6 km/h 95 % 0.0 in /  0 mm
03:03 -1.9 °F /  -18.8 °C -2.6 °F /  -19.2 °C 996.5 in /  33741.5 hPa NNE 3.2 mph /  5.1 km/h 9.7 mph /  15.6 km/h 95 % 0.0 in /  0 mm
03:09 -1.8 °F /  -18.8 °C -2.5 °F /  -19.2 °C 996.5 in /  33741.5 hPa NE 3.2 mph /  5.1 km/h 12.9 mph /  20.8 km/h 95 % 0.0 in /  0 mm
03:15 -1.8 °F /  -18.8 °C -2.5 °F /  -19.2 °C 996.2 in /  33731.3 hPa NE 9.7 mph /  15.6 km/h 11.3 mph /  18.2 km/h 95 % 0.0 in /  0 mm
03:21 -1.9 °F /  -18.8 °C -2.6 °F /  -19.2 °C 996.2 in /  33731.3 hPa NE 4.7 mph /  7.6 km/h 9.7 mph /  15.6 km/h 95 % 0.0 in /  0 mm
03:27 -1.8 °F /  -18.8 °C -2.5 °F /  -19.2 °C 996.2 in /  33731.3 hPa NE 7.9 mph /  12.7 km/h 12.9 mph /  20.8 km/h 95 % 0.0 in /  0 mm
03:33 -1.8 °F /  -18.8 °C -2.5 °F /  -19.2 °C 995.8 in /  33717.8 hPa NE 6.4 mph /  10.3 km/h 11.3 mph /  18.2 km/h 95 % 0.0 in /  0 mm
03:39 -1.8 °F /  -18.8 °C -2.5 °F /  -19.2 °C 995.8 in /  33717.8 hPa NE 7.9 mph /  12.7 km/h 14.5 mph /  23.3 km/h 95 % 0.0 in /  0 mm
03:45 -1.8 °F /  -18.8 °C -2.5 °F /  -19.2 °C 995.8 in /  33717.8 hPa ENE 6.4 mph /  10.3 km/h 12.9 mph /  20.8 km/h 95 % 0.0 in /  0 mm
03:51 -1.7 °F /  -18.7 °C -2.3 °F /  -19.1 °C 995.8 in /  33717.8 hPa NE 4.7 mph /  7.6 km/h 8.0 mph /  12.9 km/h 96 % 0.0 in /  0 mm
03:57 -1.7 °F /  -18.7 °C -2.4 °F /  -19.1 °C 995.8 in /  33717.8 hPa NE 1.4 mph /  2.3 km/h 9.7 mph /  15.6 km/h 95 % 0.0 in /  0 mm
04:03 -1.7 °F /  -18.7 °C -2.3 °F /  -19.1 °C 995.8 in /  33717.8 hPa NE 6.4 mph /  10.3 km/h 11.3 mph /  18.2 km/h 96 % 0.0 in /  0 mm
04:09 -1.7 °F /  -18.7 °C -2.3 °F /  -19.1 °C 995.8 in /  33717.8 hPa NE 7.9 mph /  12.7 km/h 11.3 mph /  18.2 km/h 96 % 0.0 in /  0 mm
04:15 -1.7 °F /  -18.7 °C -2.3 °F /  -19.1 °C 995.8 in /  33717.8 hPa NE 4.7 mph /  7.6 km/h 9.7 mph /  15.6 km/h 96 % 0.0 in /  0 mm
04:21 -1.7 °F /  -18.7 °C -2.3 °F /  -19.1 °C 995.8 in /  33717.8 hPa NNE 9.7 mph /  15.6 km/h 14.5 mph /  23.3 km/h 96 % 0.0 in /  0 mm
04:27 -1.6 °F /  -18.7 °C -2.2 °F /  -19 °C 995.8 in /  33717.8 hPa NE 9.7 mph /  15.6 km/h 11.3 mph /  18.2 km/h 96 % 0.0 in /  0 mm
04:33 -1.6 °F /  -18.7 °C -2.2 °F /  -19 °C 995.8 in /  33717.8 hPa NE 6.4 mph /  10.3 km/h 8.0 mph /  12.9 km/h 96 % 0.0 in /  0 mm
04:39 -1.6 °F /  -18.7 °C -2.2 °F /  -19 °C 995.5 in /  33707.6 hPa ENE 3.2 mph /  5.1 km/h 6.4 mph /  10.3 km/h 96 % 0.0 in /  0 mm
04:45 -1.6 °F /  -18.7 °C -2.2 °F /  -19 °C 995.5 in /  33707.6 hPa NE 4.7 mph /  7.6 km/h 8.0 mph /  12.9 km/h 96 % 0.0 in /  0 mm
04:51 -1.6 °F /  -18.7 °C -2.2 °F /  -19 °C 995.5 in /  33707.6 hPa ENE 3.2 mph /  5.1 km/h 6.4 mph /  10.3 km/h 96 % 0.0 in /  0 mm
04:57 -1.6 °F /  -18.7 °C -2.2 °F /  -19 °C 995.5 in /  33707.6 hPa NE 4.7 mph /  7.6 km/h 8.0 mph /  12.9 km/h 96 % 0.0 in /  0 mm
05:03 -1.6 °F /  -18.7 °C -2.2 °F /  -19 °C 995.5 in /  33707.6 hPa ENE 1.4 mph /  2.3 km/h 9.7 mph /  15.6 km/h 96 % 0.0 in /  0 mm
05:09 -1.6 °F /  -18.7 °C -2.2 °F /  -19 °C 995.5 in /  33707.6 hPa NE 7.9 mph /  12.7 km/h 8.0 mph /  12.9 km/h 96 % 0.0 in /  0 mm
05:15 -1.6 °F /  -18.7 °C -2.2 °F /  -19 °C 995.5 in /  33707.6 hPa NE 4.7 mph /  7.6 km/h 8.0 mph /  12.9 km/h 96 % 0.0 in /  0 mm
05:21 -1.6 °F /  -18.7 °C -2.2 °F /  -19 °C 995.5 in /  33707.6 hPa NE 6.4 mph /  10.3 km/h 9.7 mph /  15.6 km/h 96 % 0.0 in /  0 mm
05:27 -1.5 °F /  -18.6 °C -2.1 °F /  -18.9 °C 995.5 in /  33707.6 hPa NE 1.4 mph /  2.3 km/h 6.4 mph /  10.3 km/h 96 % 0.0 in /  0 mm
05:33 -1.4 °F /  -18.6 °C -2.0 °F /  -18.9 °C 995.5 in /  33707.6 hPa NE 4.7 mph /  7.6 km/h 8.0 mph /  12.9 km/h 96 % 0.0 in /  0 mm
05:39 -1.4 °F /  -18.6 °C -2.0 °F /  -18.9 °C 995.5 in /  33707.6 hPa NE 6.4 mph /  10.3 km/h 9.7 mph /  15.6 km/h 96 % 0.0 in /  0 mm
05:45 -1.4 °F /  -18.6 °C -2.0 °F /  -18.9 °C 995.5 in /  33707.6 hPa NE 3.2 mph /  5.1 km/h 6.4 mph /  10.3 km/h 96 % 0.0 in /  0 mm
05:51 -1.4 °F /  -18.6 °C -2.0 °F /  -18.9 °C 995.5 in /  33707.6 hPa NE 3.2 mph /  5.1 km/h 8.0 mph /  12.9 km/h 96 % 0.0 in /  0 mm
05:57 -1.4 °F /  -18.6 °C -2.0 °F /  -18.9 °C 995.5 in /  33707.6 hPa NE 1.4 mph /  2.3 km/h 4.8 mph /  7.7 km/h 96 % 0.0 in /  0 mm
06:03 -1.4 °F /  -18.6 °C -2.0 °F /  -18.9 °C 995.1 in /  33694.1 hPa NE 1.4 mph /  2.3 km/h 6.4 mph /  10.3 km/h 96 % 0.0 in /  0 mm
06:09 -1.3 °F /  -18.5 °C -1.9 °F /  -18.8 °C 995.1 in /  33694.1 hPa ENE 1.4 mph /  2.3 km/h 6.4 mph /  10.3 km/h 96 % 0.0 in /  0 mm
06:15 -1.3 °F /  -18.5 °C -1.9 °F /  -18.8 °C 995.1 in /  33694.1 hPa NE 3.2 mph /  5.1 km/h 6.4 mph /  10.3 km/h 96 % 0.0 in /  0 mm
06:21 -1.3 °F /  -18.5 °C -1.9 °F /  -18.8 °C 995.1 in /  33694.1 hPa ENE 1.4 mph /  2.3 km/h 4.8 mph /  7.7 km/h 96 % 0.0 in /  0 mm
06:27 -1.2 °F /  -18.4 °C -1.8 °F /  -18.8 °C 995.1 in /  33694.1 hPa ENE 3.2 mph /  5.1 km/h 4.8 mph /  7.7 km/h 96 % 0.0 in /  0 mm
06:33 -1.2 °F /  -18.4 °C -1.8 °F /  -18.8 °C 995.1 in /  33694.1 hPa ENE 3.2 mph /  5.1 km/h 8.0 mph /  12.9 km/h 96 % 0.0 in /  0 mm
06:39 -1.1 °F /  -18.4 °C -1.7 °F /  -18.7 °C 995.1 in /  33694.1 hPa ENE 3.2 mph /  5.1 km/h 8.0 mph /  12.9 km/h 96 % 0.0 in /  0 mm
06:45 -1.0 °F /  -18.3 °C -1.6 °F /  -18.7 °C 995.1 in /  33694.1 hPa ENE 3.2 mph /  5.1 km/h 6.4 mph /  10.3 km/h 96 % 0.0 in /  0 mm
06:51 -0.9 °F /  -18.3 °C -1.5 °F /  -18.6 °C 995.1 in /  33694.1 hPa ENE 1.4 mph /  2.3 km/h 6.4 mph /  10.3 km/h 96 % 0.0 in /  0 mm
06:57 -0.8 °F /  -18.2 °C -1.4 °F /  -18.6 °C 995.1 in /  33694.1 hPa NNE 3.2 mph /  5.1 km/h 4.8 mph /  7.7 km/h 96 % 0.0 in /  0 mm
07:03 -0.8 °F /  -18.2 °C -1.4 °F /  -18.6 °C 995.1 in /  33694.1 hPa ENE 3.2 mph /  5.1 km/h 4.8 mph /  7.7 km/h 96 % 0.0 in /  0 mm
07:09 -0.7 °F /  -18.2 °C -1.3 °F /  -18.5 °C 995.1 in /  33694.1 hPa Calm   3.2 mph /  5.1 km/h 96 % 0.0 in /  0 mm
07:15 -0.7 °F /  -18.2 °C -1.3 °F /  -18.5 °C 995.1 in /  33694.1 hPa ENE 1.4 mph /  2.3 km/h 4.8 mph /  7.7 km/h 96 % 0.0 in /  0 mm
07:21 -0.6 °F /  -18.1 °C -1.2 °F /  -18.4 °C 995.1 in /  33694.1 hPa ENE 3.2 mph /  5.1 km/h 3.2 mph /  5.1 km/h 96 % 0.0 in /  0 mm
07:27 -0.6 °F /  -18.1 °C -1.2 °F /  -18.4 °C 995.1 in /  33694.1 hPa ENE 1.4 mph /  2.3 km/h 4.8 mph /  7.7 km/h 96 % 0.0 in /  0 mm
07:33 -0.5 °F /  -18.1 °C -1.1 °F /  -18.4 °C 994.8 in /  33683.9 hPa ENE 3.2 mph /  5.1 km/h 4.8 mph /  7.7 km/h 96 % 0.0 in /  0 mm
07:39 -0.4 °F /  -18 °C -1.0 °F /  -18.3 °C 994.8 in /  33683.9 hPa Calm   4.8 mph /  7.7 km/h 96 % 0.0 in /  0 mm
07:45 -0.4 °F /  -18 °C -1.0 °F /  -18.3 °C 994.8 in /  33683.9 hPa Calm   3.2 mph /  5.1 km/h 96 % 0.0 in /  0 mm
07:51 -0.3 °F /  -17.9 °C -0.9 °F /  -18.3 °C 994.8 in /  33683.9 hPa ENE 1.4 mph /  2.3 km/h 3.2 mph /  5.1 km/h 96 % 0.0 in /  0 mm
07:57 -0.3 °F /  -17.9 °C -0.9 °F /  -18.3 °C 994.8 in /  33683.9 hPa NE 1.4 mph /  2.3 km/h 1.6 mph /  2.6 km/h 96 % 0.0 in /  0 mm
08:03 -0.2 °F /  -17.9 °C -0.8 °F /  -18.2 °C 994.8 in /  33683.9 hPa ENE 1.4 mph /  2.3 km/h 1.6 mph /  2.6 km/h 96 % 0.0 in /  0 mm
08:09 -0.2 °F /  -17.9 °C -0.8 °F /  -18.2 °C 994.8 in /  33683.9 hPa ENE 3.2 mph /  5.1 km/h 3.2 mph /  5.1 km/h 96 % 0.0 in /  0 mm
08:15 -0.2 °F /  -17.9 °C -0.8 °F /  -18.2 °C 994.8 in /  33683.9 hPa Calm   3.2 mph /  5.1 km/h 96 % 0.0 in /  0 mm
08:21 -0.1 °F /  -17.8 °C -0.7 °F /  -18.2 °C 994.8 in /  33683.9 hPa ENE 1.4 mph /  2.3 km/h 3.2 mph /  5.1 km/h 96 % 0.0 in /  0 mm
08:27 -0.1 °F /  -17.8 °C -0.7 °F /  -18.2 °C 994.8 in /  33683.9 hPa Calm   4.8 mph /  7.7 km/h 96 % 0.0 in /  0 mm
08:33 -0.1 °F /  -17.8 °C -0.7 °F /  -18.2 °C 994.8 in /  33683.9 hPa Calm   1.6 mph /  2.6 km/h 96 % 0.0 in /  0 mm
08:39 -0.1 °F /  -17.8 °C -0.7 °F /  -18.2 °C 994.8 in /  33683.9 hPa Calm   1.6 mph /  2.6 km/h 96 % 0.0 in /  0 mm
08:45 0.0 °F /  -17.8 °C -0.6 °F /  -18.1 °C 994.8 in /  33683.9 hPa Calm     96 % 0.0 in /  0 mm
08:52 0.0 °F /  -17.8 °C -0.6 °F /  -18.1 °C 994.8 in /  33683.9 hPa Calm   1.6 mph /  2.6 km/h 96 % 0.0 in /  0 mm
08:58 0.1 °F /  -17.7 °C -0.5 °F /  -18.1 °C 994.8 in /  33683.9 hPa NE 1.4 mph /  2.3 km/h 1.6 mph /  2.6 km/h 96 % 0.0 in /  0 mm
09:04 0.2 °F /  -17.7 °C -0.4 °F /  -18 °C 994.5 in /  33673.8 hPa Calm   1.6 mph /  2.6 km/h 96 % 0.0 in /  0 mm
09:10 0.3 °F /  -17.6 °C -0.3 °F /  -17.9 °C 994.8 in /  33683.9 hPa Calm     96 % 0.0 in /  0 mm
09:18 0.5 °F /  -17.5 °C 0.1 °F /  -17.7 °C 994.5 in /  33673.8 hPa Calm     97 % 0.0 in /  0 mm
09:24 0.6 °F /  -17.4 °C 0.0 °F /  -17.8 °C 994.5 in /  33673.8 hPa NE 3.2 mph /  5.1 km/h 3.2 mph /  5.1 km/h 96 % 0.0 in /  0 mm
09:30 0.6 °F /  -17.4 °C 0.0 °F /  -17.8 °C 994.5 in /  33673.8 hPa Calm   1.6 mph /  2.6 km/h 96 % 0.0 in /  0 mm
09:36 0.8 °F /  -17.3 °C 0.2 °F /  -17.7 °C 994.1 in /  33660.2 hPa Calm     96 % 0.0 in /  0 mm
09:42 0.9 °F /  -17.3 °C 0.3 °F /  -17.6 °C 994.1 in /  33660.2 hPa Calm   1.6 mph /  2.6 km/h 96 % 0.0 in /  0 mm
09:48 1.1 °F /  -17.2 °C 0.5 °F /  -17.5 °C 994.1 in /  33660.2 hPa Calm     96 % 0.0 in /  0 mm
09:56 1.3 °F /  -17.1 °C 0.7 °F /  -17.4 °C 994.1 in /  33660.2 hPa Calm     96 % 0.0 in /  0 mm
10:00 1.4 °F /  -17 °C 0.8 °F /  -17.3 °C 994.1 in /  33660.2 hPa NE 3.2 mph /  5.1 km/h 3.2 mph /  5.1 km/h 96 % 0.0 in /  0 mm
10:06 1.3 °F /  -17.1 °C 0.7 °F /  -17.4 °C 994.1 in /  33660.2 hPa Calm   3.2 mph /  5.1 km/h 96 % 0.0 in /  0 mm
10:12 1.4 °F /  -17 °C 0.8 °F /  -17.3 °C 994.1 in /  33660.2 hPa Calm     96 % 0.0 in /  0 mm
10:18 1.6 °F /  -16.9 °C 1.0 °F /  -17.2 °C 994.1 in /  33660.2 hPa Calm   1.6 mph /  2.6 km/h 96 % 0.0 in /  0 mm
10:20 1.6 °F /  -16.9 °C 1.0 °F /  -17.2 °C 994.1 in /  33660.2 hPa Calm   1.6 mph /  2.6 km/h 96 % 0.0 in /  0 mm
10:26 1.6 °F /  -16.9 °C 1.0 °F /  -17.2 °C 994.1 in /  33660.2 hPa Calm     96 % 0.0 in /  0 mm
10:32 1.7 °F /  -16.8 °C 1.0 °F /  -17.2 °C 993.8 in /  33650.1 hPa NE 3.2 mph /  5.1 km/h 3.2 mph /  5.1 km/h 95 % 0.0 in /  0 mm
10:38 1.7 °F /  -16.8 °C 1.1 °F /  -17.2 °C 993.8 in /  33650.1 hPa Calm   3.2 mph /  5.1 km/h 96 % 0.0 in /  0 mm
10:44 1.9 °F /  -16.7 °C 1.3 °F /  -17.1 °C 993.8 in /  33650.1 hPa NE 1.4 mph /  2.3 km/h 3.2 mph /  5.1 km/h 96 % 0.3 in /  7.62 mm
10:50 2.0 °F /  -16.7 °C 1.4 °F /  -17 °C 993.8 in /  33650.1 hPa Calm   3.2 mph /  5.1 km/h 96 % 0.5 in /  12.7 mm
10:56 2.2 °F /  -16.6 °C 1.6 °F /  -16.9 °C 993.5 in /  33639.9 hPa Calm   1.6 mph /  2.6 km/h 96 % 0.5 in /  12.7 mm
11:03 2.3 °F /  -16.5 °C 1.6 °F /  -16.9 °C 993.5 in /  33639.9 hPa NE 1.4 mph /  2.3 km/h 3.2 mph /  5.1 km/h 95 % 1.0 in /  25.4 mm
11:09 2.4 °F /  -16.4 °C 1.7 °F /  -16.8 °C 993.5 in /  33639.9 hPa Calm   3.2 mph /  5.1 km/h 95 % 1.3 in /  33.02 mm
11:15 2.4 °F /  -16.4 °C 1.7 °F /  -16.8 °C 993.5 in /  33639.9 hPa Calm   3.2 mph /  5.1 km/h 95 % 1.5 in /  38.1 mm
11:21 2.6 °F /  -16.3 °C 1.9 °F /  -16.7 °C 993.5 in /  33639.9 hPa ENE 1.4 mph /  2.3 km/h 4.8 mph /  7.7 km/h 95 % 1.5 in /  38.1 mm
11:27 2.9 °F /  -16.2 °C 2.0 °F /  -16.7 °C 993.5 in /  33639.9 hPa ENE 4.7 mph /  7.6 km/h 4.8 mph /  7.7 km/h 94 % 1.5 in /  38.1 mm
11:33 3.1 °F /  -16.1 °C 2.1 °F /  -16.6 °C 993.5 in /  33639.9 hPa East 1.4 mph /  2.3 km/h 3.2 mph /  5.1 km/h 93 % 1.5 in /  38.1 mm
11:39 3.2 °F /  -16 °C 2.0 °F /  -16.7 °C 993.5 in /  33639.9 hPa Calm   3.2 mph /  5.1 km/h 92 % 1.8 in /  45.72 mm
11:45 3.3 °F /  -15.9 °C 2.0 °F /  -16.7 °C 993.5 in /  33639.9 hPa Calm   4.8 mph /  7.7 km/h 91 % 1.5 in /  38.1 mm
11:51 3.4 °F /  -15.9 °C 1.9 °F /  -16.7 °C 993.5 in /  33639.9 hPa East 3.2 mph /  5.1 km/h 3.2 mph /  5.1 km/h 90 % 1.5 in /  38.1 mm
11:57 3.5 °F /  -15.8 °C 2.0 °F /  -16.7 °C 993.5 in /  33639.9 hPa ENE 4.7 mph /  7.6 km/h 4.8 mph /  7.7 km/h 90 % 1.3 in /  33.02 mm
12:03 3.6 °F /  -15.8 °C 2.0 °F /  -16.7 °C 993.1 in /  33626.4 hPa Calm   6.4 mph /  10.3 km/h 89 % 1.0 in /  25.4 mm
12:09 3.7 °F /  -15.7 °C 2.1 °F /  -16.6 °C 993.1 in /  33626.4 hPa ENE 3.2 mph /  5.1 km/h 6.4 mph /  10.3 km/h 89 % 0.8 in /  20.32 mm
12:15 3.7 °F /  -15.7 °C 2.1 °F /  -16.6 °C 992.8 in /  33616.2 hPa NE 4.7 mph /  7.6 km/h 6.4 mph /  10.3 km/h 89 % 0.8 in /  20.32 mm
12:21 3.9 °F /  -15.6 °C 2.1 °F /  -16.6 °C 992.8 in /  33616.2 hPa ENE 3.2 mph /  5.1 km/h 6.4 mph /  10.3 km/h 88 % 0.8 in /  20.32 mm
12:27 4.0 °F /  -15.6 °C 2.2 °F /  -16.6 °C 992.8 in /  33616.2 hPa East 1.4 mph /  2.3 km/h 3.2 mph /  5.1 km/h 88 % 0.5 in /  12.7 mm
12:33 4.2 °F /  -15.4 °C 2.2 °F /  -16.6 °C 992.4 in /  33602.7 hPa ENE 4.7 mph /  7.6 km/h 6.4 mph /  10.3 km/h 87 % 0.5 in /  12.7 mm
12:39 4.3 °F /  -15.4 °C 2.3 °F /  -16.5 °C 992.4 in /  33602.7 hPa ENE 4.7 mph /  7.6 km/h 6.4 mph /  10.3 km/h 87 % 0.5 in /  12.7 mm
12:45 4.5 °F /  -15.3 °C 2.4 °F /  -16.4 °C 992.1 in /  33592.5 hPa East 4.7 mph /  7.6 km/h 9.7 mph /  15.6 km/h 86 % 0.5 in /  12.7 mm
12:51 4.7 °F /  -15.2 °C 2.4 °F /  -16.4 °C 992.1 in /  33592.5 hPa East 6.4 mph /  10.3 km/h 8.0 mph /  12.9 km/h 85 % 0.3 in /  7.62 mm
12:57 5.1 °F /  -14.9 °C 2.6 °F /  -16.3 °C 992.1 in /  33592.5 hPa NE 4.7 mph /  7.6 km/h 8.0 mph /  12.9 km/h 84 % 0.3 in /  7.62 mm
13:03 5.6 °F /  -14.7 °C 3.1 °F /  -16.1 °C 991.8 in /  33582.3 hPa East 3.2 mph /  5.1 km/h 9.7 mph /  15.6 km/h 84 % 0.3 in /  7.62 mm
13:09 5.9 °F /  -14.5 °C 2.9 °F /  -16.2 °C 991.8 in /  33582.3 hPa East 6.4 mph /  10.3 km/h 11.3 mph /  18.2 km/h 81 % 0.3 in /  7.62 mm
13:15 6.1 °F /  -14.4 °C 2.7 °F /  -16.3 °C 991.8 in /  33582.3 hPa East 9.7 mph /  15.6 km/h 11.3 mph /  18.2 km/h 79 % 0.0 in /  0 mm
13:21 6.3 °F /  -14.3 °C 3.1 °F /  -16.1 °C 991.4 in /  33568.8 hPa ENE 6.4 mph /  10.3 km/h 8.0 mph /  12.9 km/h 80 % 0.0 in /  0 mm
13:27 6.6 °F /  -14.1 °C 3.0 °F /  -16.1 °C 991.4 in /  33568.8 hPa East 7.9 mph /  12.7 km/h 14.5 mph /  23.3 km/h 78 % 0.0 in /  0 mm
13:33 6.8 °F /  -14 °C 3.2 °F /  -16 °C 991.4 in /  33568.8 hPa ENE 9.7 mph /  15.6 km/h 11.3 mph /  18.2 km/h 78 % 0.0 in /  0 mm
13:39 7.0 °F /  -13.9 °C 3.2 °F /  -16 °C 991.1 in /  33558.6 hPa East 7.9 mph /  12.7 km/h 14.5 mph /  23.3 km/h 77 % 0.0 in /  0 mm
13:45 7.3 °F /  -13.7 °C 3.3 °F /  -15.9 °C 991.1 in /  33558.6 hPa East 6.4 mph /  10.3 km/h 12.9 mph /  20.8 km/h 76 % 0.0 in /  0 mm
13:51 7.6 °F /  -13.6 °C 3.5 °F /  -15.8 °C 991.1 in /  33558.6 hPa East 7.9 mph /  12.7 km/h 9.7 mph /  15.6 km/h 75 % 0.0 in /  0 mm
13:57 7.7 °F /  -13.5 °C 3.2 °F /  -16 °C 991.1 in /  33558.6 hPa ESE 13.0 mph /  20.9 km/h 14.5 mph /  23.3 km/h 73 % 0.0 in /  0 mm
14:03 8.0 °F /  -13.3 °C 3.5 °F /  -15.8 °C 990.7 in /  33545.1 hPa SE 6.4 mph /  10.3 km/h 16.1 mph /  25.9 km/h 73 % 0.0 in /  0 mm
14:09 8.3 °F /  -13.2 °C 3.7 °F /  -15.7 °C 990.7 in /  33545.1 hPa NE 9.7 mph /  15.6 km/h 16.1 mph /  25.9 km/h 73 % 0.0 in /  0 mm
14:15 8.4 °F /  -13.1 °C 3.8 °F /  -15.7 °C 990.7 in /  33545.1 hPa ENE 6.4 mph /  10.3 km/h 11.3 mph /  18.2 km/h 73 % 0.0 in /  0 mm
14:21 8.7 °F /  -12.9 °C 3.7 °F /  -15.7 °C 990.7 in /  33545.1 hPa East 11.1 mph /  17.9 km/h 14.5 mph /  23.3 km/h 71 % 0.0 in /  0 mm
14:23 8.8 °F /  -12.9 °C 4.2 °F /  -15.4 °C 990.7 in /  33545.1 hPa ENE 6.4 mph /  10.3 km/h 14.5 mph /  23.3 km/h 73 % 0.0 in /  0 mm
14:29 8.9 °F /  -12.8 °C 3.9 °F /  -15.6 °C 990.7 in /  33545.1 hPa ESE 7.9 mph /  12.7 km/h 11.3 mph /  18.2 km/h 71 % 0.0 in /  0 mm
14:35 9.1 °F /  -12.7 °C 4.3 °F /  -15.4 °C 990.4 in /  33534.9 hPa ENE 9.7 mph /  15.6 km/h 14.5 mph /  23.3 km/h 72 % 0.0 in /  0 mm
14:41 9.1 °F /  -12.7 °C 3.9 °F /  -15.6 °C 990.4 in /  33534.9 hPa East 11.1 mph /  17.9 km/h 16.1 mph /  25.9 km/h 70 % 0.0 in /  0 mm
14:47 9.3 °F /  -12.6 °C 4.3 °F /  -15.4 °C 990.1 in /  33524.8 hPa East 4.7 mph /  7.6 km/h 11.3 mph /  18.2 km/h 71 % 0.0 in /  0 mm
14:53 9.3 °F /  -12.6 °C 4.3 °F /  -15.4 °C 990.1 in /  33524.8 hPa ENE 11.1 mph /  17.9 km/h 16.1 mph /  25.9 km/h 71 % 0.0 in /  0 mm
14:59 9.2 °F /  -12.7 °C 4.4 °F /  -15.3 °C 990.1 in /  33524.8 hPa East 4.7 mph /  7.6 km/h 12.9 mph /  20.8 km/h 72 % 0.0 in /  0 mm
15:05 9.3 °F /  -12.6 °C 4.1 °F /  -15.5 °C 990.1 in /  33524.8 hPa ENE 6.4 mph /  10.3 km/h 14.5 mph /  23.3 km/h 70 % 0.0 in /  0 mm
15:11 9.4 °F /  -12.6 °C 4.2 °F /  -15.4 °C 990.1 in /  33524.8 hPa East 7.9 mph /  12.7 km/h 12.9 mph /  20.8 km/h 70 % 0.0 in /  0 mm
15:17 9.4 °F /  -12.6 °C 4.4 °F /  -15.3 °C 990.1 in /  33524.8 hPa ENE 4.7 mph /  7.6 km/h 14.5 mph /  23.3 km/h 71 % 0.0 in /  0 mm
15:23 9.5 °F /  -12.5 °C 4.3 °F /  -15.4 °C 989.7 in /  33511.2 hPa East 6.4 mph /  10.3 km/h 11.3 mph /  18.2 km/h 70 % 0.0 in /  0 mm
15:29 9.4 °F /  -12.6 °C 4.2 °F /  -15.4 °C 989.7 in /  33511.2 hPa ENE 11.1 mph /  17.9 km/h 19.3 mph /  31.1 km/h 70 % 0.0 in /  0 mm
15:35 9.4 °F /  -12.6 °C 4.2 °F /  -15.4 °C 989.4 in /  33501.1 hPa East 7.9 mph /  12.7 km/h 14.5 mph /  23.3 km/h 70 % 0.0 in /  0 mm
15:41 9.4 °F /  -12.6 °C 4.2 °F /  -15.4 °C 989.4 in /  33501.1 hPa East 6.4 mph /  10.3 km/h 11.3 mph /  18.2 km/h 70 % 0.0 in /  0 mm
15:47 9.5 °F /  -12.5 °C 4.5 °F /  -15.3 °C 989.4 in /  33501.1 hPa East 6.4 mph /  10.3 km/h 9.7 mph /  15.6 km/h 71 % 0.0 in /  0 mm
15:53 9.6 °F /  -12.4 °C 4.4 °F /  -15.3 °C 989.4 in /  33501.1 hPa East 6.4 mph /  10.3 km/h 16.1 mph /  25.9 km/h 70 % 0.0 in /  0 mm
15:59 9.6 °F /  -12.4 °C 4.6 °F /  -15.2 °C 989.1 in /  33490.9 hPa East 4.7 mph /  7.6 km/h 11.3 mph /  18.2 km/h 71 % 0.0 in /  0 mm
16:05 9.7 °F /  -12.4 °C 4.5 °F /  -15.3 °C 989.1 in /  33490.9 hPa ENE 6.4 mph /  10.3 km/h 12.9 mph /  20.8 km/h 70 % 0.0 in /  0 mm
16:11 9.7 °F /  -12.4 °C 4.5 °F /  -15.3 °C 989.1 in /  33490.9 hPa ENE 3.2 mph /  5.1 km/h 12.9 mph /  20.8 km/h 70 % 0.0 in /  0 mm
16:17 9.8 °F /  -12.3 °C 4.8 °F /  -15.1 °C 988.7 in /  33477.4 hPa East 6.4 mph /  10.3 km/h 12.9 mph /  20.8 km/h 71 % 0.0 in /  0 mm
16:23 10.0 °F /  -12.2 °C 4.8 °F /  -15.1 °C 988.7 in /  33477.4 hPa ESE 3.2 mph /  5.1 km/h 8.0 mph /  12.9 km/h 70 % 0.0 in /  0 mm
16:29 10.0 °F /  -12.2 °C 4.6 °F /  -15.2 °C 988.7 in /  33477.4 hPa East 4.7 mph /  7.6 km/h 11.3 mph /  18.2 km/h 69 % 0.0 in /  0 mm
16:35 9.9 °F /  -12.3 °C 4.5 °F /  -15.3 °C 988.7 in /  33477.4 hPa ENE 6.4 mph /  10.3 km/h 8.0 mph /  12.9 km/h 69 % 0.0 in /  0 mm
16:41 9.8 °F /  -12.3 °C 4.6 °F /  -15.2 °C 988.4 in /  33467.2 hPa ESE 3.2 mph /  5.1 km/h 9.7 mph /  15.6 km/h 70 % 0.0 in /  0 mm
16:47 9.8 °F /  -12.3 °C 4.6 °F /  -15.2 °C 988.4 in /  33467.2 hPa East 3.2 mph /  5.1 km/h 4.8 mph /  7.7 km/h 70 % 0.0 in /  0 mm
16:53 9.8 °F /  -12.3 °C 4.6 °F /  -15.2 °C 988.4 in /  33467.2 hPa East 3.2 mph /  5.1 km/h 8.0 mph /  12.9 km/h 70 % 0.0 in /  0 mm
16:59 9.7 °F /  -12.4 °C 4.7 °F /  -15.2 °C 988.7 in /  33477.4 hPa East 6.4 mph /  10.3 km/h 6.4 mph /  10.3 km/h 71 % 0.0 in /  0 mm
17:05 9.7 °F /  -12.4 °C 4.7 °F /  -15.2 °C 988.4 in /  33467.2 hPa East 9.7 mph /  15.6 km/h 12.9 mph /  20.8 km/h 71 % 0.0 in /  0 mm
17:11 9.5 °F /  -12.5 °C 4.5 °F /  -15.3 °C 988.4 in /  33467.2 hPa East 3.2 mph /  5.1 km/h 9.7 mph /  15.6 km/h 71 % 0.0 in /  0 mm
17:17 9.4 °F /  -12.6 °C 4.6 °F /  -15.2 °C 988.4 in /  33467.2 hPa ENE 7.9 mph /  12.7 km/h 12.9 mph /  20.8 km/h 72 % 0.0 in /  0 mm
17:23 9.4 °F /  -12.6 °C 4.6 °F /  -15.2 °C 988.4 in /  33467.2 hPa NE 7.9 mph /  12.7 km/h 9.7 mph /  15.6 km/h 72 % 0.0 in /  0 mm
17:29 9.3 °F /  -12.6 °C 4.5 °F /  -15.3 °C 988.4 in /  33467.2 hPa East 4.7 mph /  7.6 km/h 8.0 mph /  12.9 km/h 72 % 0.0 in /  0 mm
17:35 9.3 °F /  -12.6 °C 4.5 °F /  -15.3 °C 988.4 in /  33467.2 hPa SE 4.7 mph /  7.6 km/h 12.9 mph /  20.8 km/h 72 % 0.0 in /  0 mm
17:41 9.2 °F /  -12.7 °C 4.4 °F /  -15.3 °C 988.4 in /  33467.2 hPa ESE 6.4 mph /  10.3 km/h 11.3 mph /  18.2 km/h 72 % 0.0 in /  0 mm
17:47 9.3 °F /  -12.6 °C 4.5 °F /  -15.3 °C 988.4 in /  33467.2 hPa ENE 9.7 mph /  15.6 km/h 12.9 mph /  20.8 km/h 72 % 0.0 in /  0 mm
17:53 9.2 °F /  -12.7 °C 4.6 °F /  -15.2 °C 988.0 in /  33453.7 hPa ENE 4.7 mph /  7.6 km/h 11.3 mph /  18.2 km/h 73 % 0.0 in /  0 mm
17:59 9.1 °F /  -12.7 °C 4.5 °F /  -15.3 °C 988.0 in /  33453.7 hPa SE 3.2 mph /  5.1 km/h 8.0 mph /  12.9 km/h 73 % 0.0 in /  0 mm
18:05 8.8 °F /  -12.9 °C 4.4 °F /  -15.3 °C 988.0 in /  33453.7 hPa ESE 4.7 mph /  7.6 km/h 8.0 mph /  12.9 km/h 74 % 0.0 in /  0 mm
18:11 8.6 °F /  -13 °C 4.4 °F /  -15.3 °C 988.0 in /  33453.7 hPa East 3.2 mph /  5.1 km/h 8.0 mph /  12.9 km/h 75 % 0.0 in /  0 mm
18:17 8.5 °F /  -13.1 °C 4.3 °F /  -15.4 °C 988.0 in /  33453.7 hPa East 4.7 mph /  7.6 km/h 6.4 mph /  10.3 km/h 75 % 0.0 in /  0 mm
18:23 8.4 °F /  -13.1 °C 4.2 °F /  -15.4 °C 988.0 in /  33453.7 hPa ESE 9.7 mph /  15.6 km/h 9.7 mph /  15.6 km/h 75 % 0.0 in /  0 mm
18:29 8.4 °F /  -13.1 °C 4.2 °F /  -15.4 °C 988.0 in /  33453.7 hPa East 11.1 mph /  17.9 km/h 22.5 mph /  36.2 km/h 75 % 0.0 in /  0 mm
18:35 8.4 °F /  -13.1 °C 4.2 °F /  -15.4 °C 988.0 in /  33453.7 hPa Calm   12.9 mph /  20.8 km/h 75 % 0.0 in /  0 mm
18:41 8.2 °F /  -13.2 °C 4.0 °F /  -15.6 °C 988.0 in /  33453.7 hPa East 3.2 mph /  5.1 km/h 8.0 mph /  12.9 km/h 75 % 0.0 in /  0 mm
18:47 8.1 °F /  -13.3 °C 4.1 °F /  -15.5 °C 988.0 in /  33453.7 hPa East 4.7 mph /  7.6 km/h 12.9 mph /  20.8 km/h 76 % 0.0 in /  0 mm
18:53 7.9 °F /  -13.4 °C 3.9 °F /  -15.6 °C 988.0 in /  33453.7 hPa East 4.7 mph /  7.6 km/h 8.0 mph /  12.9 km/h 76 % 0.0 in /  0 mm
18:59 7.7 °F /  -13.5 °C 3.9 °F /  -15.6 °C 988.0 in /  33453.7 hPa Calm   3.2 mph /  5.1 km/h 77 % 0.0 in /  0 mm
19:05 7.5 °F /  -13.6 °C 3.9 °F /  -15.6 °C 988.0 in /  33453.7 hPa Calm   3.2 mph /  5.1 km/h 78 % 0.0 in /  0 mm
19:12 7.4 °F /  -13.7 °C 3.8 °F /  -15.7 °C 988.4 in /  33467.2 hPa Calm   3.2 mph /  5.1 km/h 78 % 0.0 in /  0 mm
19:18 7.2 °F /  -13.8 °C 3.6 °F /  -15.8 °C 988.4 in /  33467.2 hPa SE 1.4 mph /  2.3 km/h 1.6 mph /  2.6 km/h 78 % 0.0 in /  0 mm
19:24 7.1 °F /  -13.8 °C 3.7 °F /  -15.7 °C 988.4 in /  33467.2 hPa SE 1.4 mph /  2.3 km/h 1.6 mph /  2.6 km/h 79 % 0.0 in /  0 mm
19:30 6.9 °F /  -13.9 °C 3.7 °F /  -15.7 °C 988.4 in /  33467.2 hPa Calm     80 % 0.0 in /  0 mm
19:36 6.8 °F /  -14 °C 3.6 °F /  -15.8 °C 988.0 in /  33453.7 hPa ESE 1.4 mph /  2.3 km/h 4.8 mph /  7.7 km/h 80 % 0.0 in /  0 mm
19:42 6.7 °F /  -14.1 °C 3.5 °F /  -15.8 °C 988.0 in /  33453.7 hPa East 16.3 mph /  26.2 km/h 16.3 mph /  26.2 km/h 80 % 0.0 in /  0 mm
19:48 6.8 °F /  -14 °C 3.6 °F /  -15.8 °C 988.0 in /  33453.7 hPa SE 4.7 mph /  7.6 km/h 12.9 mph /  20.8 km/h 80 % 0.0 in /  0 mm
19:54 6.7 °F /  -14.1 °C 3.5 °F /  -15.8 °C 988.0 in /  33453.7 hPa East 3.2 mph /  5.1 km/h 9.7 mph /  15.6 km/h 80 % 0.0 in /  0 mm
20:00 6.4 °F /  -14.2 °C 3.4 °F /  -15.9 °C 987.7 in /  33443.5 hPa East 6.4 mph /  10.3 km/h 16.1 mph /  25.9 km/h 81 % 0.0 in /  0 mm
20:06 6.2 °F /  -14.3 °C 3.2 °F /  -16 °C 987.7 in /  33443.5 hPa Calm   6.4 mph /  10.3 km/h 81 % 0.0 in /  0 mm
20:12 6.2 °F /  -14.3 °C 3.4 °F /  -15.9 °C 987.7 in /  33443.5 hPa ENE 3.2 mph /  5.1 km/h 4.8 mph /  7.7 km/h 82 % 0.0 in /  0 mm
20:18 6.3 °F /  -14.3 °C 3.5 °F /  -15.8 °C 987.7 in /  33443.5 hPa ESE 4.7 mph /  7.6 km/h 12.9 mph /  20.8 km/h 82 % 0.0 in /  0 mm
20:24 6.2 °F /  -14.3 °C 3.4 °F /  -15.9 °C 987.7 in /  33443.5 hPa SE 6.4 mph /  10.3 km/h 11.3 mph /  18.2 km/h 82 % 0.0 in /  0 mm
20:30 6.1 °F /  -14.4 °C 3.3 °F /  -15.9 °C 987.7 in /  33443.5 hPa SE 6.4 mph /  10.3 km/h 8.0 mph /  12.9 km/h 82 % 0.0 in /  0 mm
20:36 6.1 °F /  -14.4 °C 3.3 °F /  -15.9 °C 987.7 in /  33443.5 hPa East 6.4 mph /  10.3 km/h 8.0 mph /  12.9 km/h 82 % 0.0 in /  0 mm
20:42 6.1 °F /  -14.4 °C 3.3 °F /  -15.9 °C 987.7 in /  33443.5 hPa East 3.2 mph /  5.1 km/h 6.4 mph /  10.3 km/h 82 % 0.0 in /  0 mm
20:48 5.9 °F /  -14.5 °C 3.2 °F /  -16 °C 987.7 in /  33443.5 hPa East 4.7 mph /  7.6 km/h 12.9 mph /  20.8 km/h 83 % 0.0 in /  0 mm
20:54 6.1 °F /  -14.4 °C 3.4 °F /  -15.9 °C 987.7 in /  33443.5 hPa ENE 3.2 mph /  5.1 km/h 9.7 mph /  15.6 km/h 83 % 0.0 in /  0 mm
21:00 6.2 °F /  -14.3 °C 3.4 °F /  -15.9 °C 987.7 in /  33443.5 hPa East 4.7 mph /  7.6 km/h 9.7 mph /  15.6 km/h 82 % 0.0 in /  0 mm
21:06 6.3 °F /  -14.3 °C 3.3 °F /  -15.9 °C 987.7 in /  33443.5 hPa East 1.4 mph /  2.3 km/h 12.9 mph /  20.8 km/h 81 % 0.0 in /  0 mm
21:12 6.4 °F /  -14.2 °C 3.6 °F /  -15.8 °C 987.4 in /  33433.4 hPa East 3.2 mph /  5.1 km/h 14.5 mph /  23.3 km/h 82 % 0.0 in /  0 mm
21:18 6.3 °F /  -14.3 °C 3.5 °F /  -15.8 °C 987.4 in /  33433.4 hPa ENE 4.7 mph /  7.6 km/h 14.5 mph /  23.3 km/h 82 % 0.0 in /  0 mm
21:24 6.3 °F /  -14.3 °C 3.5 °F /  -15.8 °C 987.4 in /  33433.4 hPa East 11.1 mph /  17.9 km/h 12.9 mph /  20.8 km/h 82 % 0.0 in /  0 mm
21:30 6.3 °F /  -14.3 °C 3.5 °F /  -15.8 °C 987.4 in /  33433.4 hPa ESE 7.9 mph /  12.7 km/h 14.5 mph /  23.3 km/h 82 % 0.0 in /  0 mm
21:36 6.2 °F /  -14.3 °C 3.4 °F /  -15.9 °C 987.4 in /  33433.4 hPa East 3.2 mph /  5.1 km/h 8.0 mph /  12.9 km/h 82 % 0.0 in /  0 mm
21:42 6.2 °F /  -14.3 °C 3.4 °F /  -15.9 °C 987.4 in /  33433.4 hPa East 6.4 mph /  10.3 km/h 12.9 mph /  20.8 km/h 82 % 0.0 in /  0 mm
21:48 6.2 °F /  -14.3 °C 3.4 °F /  -15.9 °C 987.4 in /  33433.4 hPa ESE 3.2 mph /  5.1 km/h 12.9 mph /  20.8 km/h 82 % 0.0 in /  0 mm
21:54 6.2 °F /  -14.3 °C 3.4 °F /  -15.9 °C 987.0 in /  33419.8 hPa ENE 9.7 mph /  15.6 km/h 11.3 mph /  18.2 km/h 82 % 0.0 in /  0 mm
22:00 6.3 °F /  -14.3 °C 3.5 °F /  -15.8 °C 987.0 in /  33419.8 hPa East 6.4 mph /  10.3 km/h 11.3 mph /  18.2 km/h 82 % 0.0 in /  0 mm
22:06 6.3 °F /  -14.3 °C 3.5 °F /  -15.8 °C 987.0 in /  33419.8 hPa East 6.4 mph /  10.3 km/h 9.7 mph /  15.6 km/h 82 % 0.0 in /  0 mm
22:14 6.3 °F /  -14.3 °C 3.5 °F /  -15.8 °C 987.0 in /  33419.8 hPa East 6.4 mph /  10.3 km/h 14.5 mph /  23.3 km/h 82 % 0.0 in /  0 mm
22:20 6.3 °F /  -14.3 °C 3.5 °F /  -15.8 °C 987.0 in /  33419.8 hPa ENE 11.1 mph /  17.9 km/h 11.3 mph /  18.2 km/h 82 % 0.0 in /  0 mm
22:30 6.4 °F /  -14.2 °C 3.6 °F /  -15.8 °C 987.0 in /  33419.8 hPa East 4.7 mph /  7.6 km/h 11.3 mph /  18.2 km/h 82 % 0.0 in /  0 mm
22:36 6.4 °F /  -14.2 °C 3.6 °F /  -15.8 °C 986.7 in /  33409.7 hPa ESE 11.1 mph /  17.9 km/h 11.3 mph /  18.2 km/h 82 % 0.0 in /  0 mm
22:42 6.5 °F /  -14.2 °C 3.5 °F /  -15.8 °C 986.7 in /  33409.7 hPa East 9.7 mph /  15.6 km/h 16.1 mph /  25.9 km/h 81 % 0.0 in /  0 mm
22:48 6.6 °F /  -14.1 °C 3.6 °F /  -15.8 °C 986.7 in /  33409.7 hPa East 11.1 mph /  17.9 km/h 11.3 mph /  18.2 km/h 81 % 0.0 in /  0 mm
22:54 6.6 °F /  -14.1 °C 3.6 °F /  -15.8 °C 986.7 in /  33409.7 hPa East 3.2 mph /  5.1 km/h 12.9 mph /  20.8 km/h 81 % 0.0 in /  0 mm
23:00 6.6 °F /  -14.1 °C 3.6 °F /  -15.8 °C 986.7 in /  33409.7 hPa ENE 6.4 mph /  10.3 km/h 12.9 mph /  20.8 km/h 81 % 0.0 in /  0 mm
23:06 6.7 °F /  -14.1 °C 3.7 °F /  -15.7 °C 986.7 in /  33409.7 hPa ESE 7.9 mph /  12.7 km/h 12.9 mph /  20.8 km/h 81 % 0.0 in /  0 mm
23:12 6.5 °F /  -14.2 °C 3.5 °F /  -15.8 °C 986.7 in /  33409.7 hPa East 3.2 mph /  5.1 km/h 11.3 mph /  18.2 km/h 81 % 0.0 in /  0 mm
23:18 6.5 °F /  -14.2 °C 3.6 °F /  -15.8 °C 986.7 in /  33409.7 hPa East 6.4 mph /  10.3 km/h 11.3 mph /  18.2 km/h 82 % 0.0 in /  0 mm
23:24 6.5 °F /  -14.2 °C 3.6 °F /  -15.8 °C 986.3 in /  33396.1 hPa East 11.1 mph /  17.9 km/h 12.9 mph /  20.8 km/h 82 % 0.0 in /  0 mm
23:30 6.4 °F /  -14.2 °C 3.6 °F /  -15.8 °C 986.3 in /  33396.1 hPa East 4.7 mph /  7.6 km/h 16.1 mph /  25.9 km/h 82 % 0.0 in /  0 mm
23:36 6.4 °F /  -14.2 °C 3.6 °F /  -15.8 °C 986.3 in /  33396.1 hPa East 9.7 mph /  15.6 km/h 14.5 mph /  23.3 km/h 82 % 0.0 in /  0 mm
23:42 6.4 °F /  -14.2 °C 3.6 °F /  -15.8 °C 986.3 in /  33396.1 hPa SE 6.4 mph /  10.3 km/h 11.3 mph /  18.2 km/h 82 % 0.0 in /  0 mm
23:48 6.4 °F /  -14.2 °C 3.6 °F /  -15.8 °C 986.3 in /  33396.1 hPa East 4.7 mph /  7.6 km/h 12.9 mph /  20.8 km/h 82 % 0.0 in /  0 mm
23:54 6.2 °F /  -14.3 °C 3.5 °F /  -15.8 °C 986.3 in /  33396.1 hPa SE 1.4 mph /  2.3 km/h 8.0 mph /  12.9 km/h 83 % 0.0 in /  0 mm
Meteo18
Compliments of Weather Underground - 4 mb

Script developed by  Jim McMurry - jmcmurry@mwt.net Adapted for the template by  Wim van der Kuil - Leuven-Template.eu

You find our weather info also at:

European Weather Network

Weather Underground

Equipment we use:

Weather-station
Davis Vue

Weather-program
Meteobridge

Weather-server
Raspberry PI 2 B+

Provider
1 and 1

Davis Vue

Meteobridge

Raspberry PI 2 B+

1 and 1